sensor_id;sensor_type;location;lat;lon;timestamp;temperature;humidity
12013;DHT22;6065;48.138;16.402;2022-12-17T00:02:21;1.30;99.90
12013;DHT22;6065;48.138;16.402;2022-12-17T00:05:06;1.30;99.90
12013;DHT22;6065;48.138;16.402;2022-12-17T00:07:54;1.30;99.90
12013;DHT22;6065;48.138;16.402;2022-12-17T00:10:40;1.30;99.90
12013;DHT22;6065;48.138;16.402;2022-12-17T00:13:24;1.30;99.90
12013;DHT22;6065;48.138;16.402;2022-12-17T00:16:09;1.30;99.90
12013;DHT22;6065;48.138;16.402;2022-12-17T00:18:53;1.30;99.90
12013;DHT22;6065;48.138;16.402;2022-12-17T00:21:37;1.30;99.90
12013;DHT22;6065;48.138;16.402;2022-12-17T00:24:21;1.20;99.90
12013;DHT22;6065;48.138;16.402;2022-12-17T00:27:07;1.20;99.90
12013;DHT22;6065;48.138;16.402;2022-12-17T00:29:51;1.20;99.90
12013;DHT22;6065;48.138;16.402;2022-12-17T00:32:35;1.30;99.90
12013;DHT22;6065;48.138;16.402;2022-12-17T00:35:19;1.20;99.90
12013;DHT22;6065;48.138;16.402;2022-12-17T00:38:03;1.20;99.90
12013;DHT22;6065;48.138;16.402;2022-12-17T00:40:51;1.30;99.90
12013;DHT22;6065;48.138;16.402;2022-12-17T00:43:37;1.20;99.90
12013;DHT22;6065;48.138;16.402;2022-12-17T00:46:21;1.20;99.90
12013;DHT22;6065;48.138;16.402;2022-12-17T00:49:05;1.20;99.90
12013;DHT22;6065;48.138;16.402;2022-12-17T00:51:49;1.20;99.90
12013;DHT22;6065;48.138;16.402;2022-12-17T00:54:33;1.20;99.90
12013;DHT22;6065;48.138;16.402;2022-12-17T00:57:17;1.20;99.90
12013;DHT22;6065;48.138;16.402;2022-12-17T01:00:03;1.20;99.90
12013;DHT22;6065;48.138;16.402;2022-12-17T01:02:48;1.20;99.90
12013;DHT22;6065;48.138;16.402;2022-12-17T01:05:40;1.20;99.90
12013;DHT22;6065;48.138;16.402;2022-12-17T01:08:25;1.10;99.90
12013;DHT22;6065;48.138;16.402;2022-12-17T01:11:09;1.20;99.90
12013;DHT22;6065;48.138;16.402;2022-12-17T01:13:53;1.10;99.90
12013;DHT22;6065;48.138;16.402;2022-12-17T01:16:39;1.10;99.90
12013;DHT22;6065;48.138;16.402;2022-12-17T01:19:23;1.10;99.90
12013;DHT22;6065;48.138;16.402;2022-12-17T01:22:08;1.10;99.90
12013;DHT22;6065;48.138;16.402;2022-12-17T01:24:52;1.20;99.90
12013;DHT22;6065;48.138;16.402;2022-12-17T01:27:36;1.20;99.90
12013;DHT22;6065;48.138;16.402;2022-12-17T01:30:20;1.20;99.90
12013;DHT22;6065;48.138;16.402;2022-12-17T01:33:07;1.10;99.90
12013;DHT22;6065;48.138;16.402;2022-12-17T01:35:53;1.10;99.90
12013;DHT22;6065;48.138;16.402;2022-12-17T01:38:37;1.10;99.90
12013;DHT22;6065;48.138;16.402;2022-12-17T01:41:21;1.10;99.90
12013;DHT22;6065;48.138;16.402;2022-12-17T01:47:14;1.10;99.90
12013;DHT22;6065;48.138;16.402;2022-12-17T01:50:00;1.10;99.90
12013;DHT22;6065;48.138;16.402;2022-12-17T01:52:44;1.10;99.90
12013;DHT22;6065;48.138;16.402;2022-12-17T01:55:24;1.10;99.90
12013;DHT22;6065;48.138;16.402;2022-12-17T01:58:09;1.10;99.90
12013;DHT22;6065;48.138;16.402;2022-12-17T02:01:08;1.10;99.90
12013;DHT22;6065;48.138;16.402;2022-12-17T02:03:52;1.10;99.90
12013;DHT22;6065;48.138;16.402;2022-12-17T02:06:39;1.10;99.90
12013;DHT22;6065;48.138;16.402;2022-12-17T02:09:28;1.10;99.90
12013;DHT22;6065;48.138;16.402;2022-12-17T02:12:16;1.10;99.90
12013;DHT22;6065;48.138;16.402;2022-12-17T02:15:02;1.20;99.90
12013;DHT22;6065;48.138;16.402;2022-12-17T02:17:57;1.10;99.90
12013;DHT22;6065;48.138;16.402;2022-12-17T02:20:42;1.10;99.90
12013;DHT22;6065;48.138;16.402;2022-12-17T02:23:31;1.10;99.90
12013;DHT22;6065;48.138;16.402;2022-12-17T02:26:17;1.10;99.90
12013;DHT22;6065;48.138;16.402;2022-12-17T02:29:05;1.10;99.90
12013;DHT22;6065;48.138;16.402;2022-12-17T02:31:51;1.10;99.90
12013;DHT22;6065;48.138;16.402;2022-12-17T02:34:41;1.20;99.90
12013;DHT22;6065;48.138;16.402;2022-12-17T02:37:26;1.10;99.90
12013;DHT22;6065;48.138;16.402;2022-12-17T02:40:10;1.10;99.90
12013;DHT22;6065;48.138;16.402;2022-12-17T02:43:06;1.10;99.90
12013;DHT22;6065;48.138;16.402;2022-12-17T02:45:51;1.10;99.90
12013;DHT22;6065;48.138;16.402;2022-12-17T02:48:36;1.10;99.90
12013;DHT22;6065;48.138;16.402;2022-12-17T02:51:21;1.20;99.90
12013;DHT22;6065;48.138;16.402;2022-12-17T02:54:06;1.10;99.90
12013;DHT22;6065;48.138;16.402;2022-12-17T02:56:51;1.10;99.90
12013;DHT22;6065;48.138;16.402;2022-12-17T02:59:49;1.10;99.90
12013;DHT22;6065;48.138;16.402;2022-12-17T03:02:35;1.10;99.90
12013;DHT22;6065;48.138;16.402;2022-12-17T03:05:20;1.20;99.90
12013;DHT22;6065;48.138;16.402;2022-12-17T03:08:04;1.10;99.90
12013;DHT22;6065;48.138;16.402;2022-12-17T03:10:49;1.10;99.90
12013;DHT22;6065;48.138;16.402;2022-12-17T03:13:35;1.20;99.90
12013;DHT22;6065;48.138;16.402;2022-12-17T03:16:20;1.10;99.90
12013;DHT22;6065;48.138;16.402;2022-12-17T03:19:05;1.10;99.90
12013;DHT22;6065;48.138;16.402;2022-12-17T03:21:49;1.10;99.90
12013;DHT22;6065;48.138;16.402;2022-12-17T03:24:34;1.10;99.90
12013;DHT22;6065;48.138;16.402;2022-12-17T03:27:18;1.10;99.90
12013;DHT22;6065;48.138;16.402;2022-12-17T03:30:02;1.10;99.90
12013;DHT22;6065;48.138;16.402;2022-12-17T03:32:46;1.10;99.90
12013;DHT22;6065;48.138;16.402;2022-12-17T03:35:32;1.10;99.90
12013;DHT22;6065;48.138;16.402;2022-12-17T03:38:16;1.10;99.90
12013;DHT22;6065;48.138;16.402;2022-12-17T03:41:00;1.10;99.90
12013;DHT22;6065;48.138;16.402;2022-12-17T03:43:45;1.10;99.90
12013;DHT22;6065;48.138;16.402;2022-12-17T03:46:29;1.10;99.90
12013;DHT22;6065;48.138;16.402;2022-12-17T03:49:13;1.10;99.90
12013;DHT22;6065;48.138;16.402;2022-12-17T03:51:59;1.10;99.90
12013;DHT22;6065;48.138;16.402;2022-12-17T03:54:43;1.10;99.90
12013;DHT22;6065;48.138;16.402;2022-12-17T03:57:27;1.10;99.90
12013;DHT22;6065;48.138;16.402;2022-12-17T04:00:12;1.10;99.90
12013;DHT22;6065;48.138;16.402;2022-12-17T04:02:56;1.10;99.90
12013;DHT22;6065;48.138;16.402;2022-12-17T04:05:41;1.10;99.90
12013;DHT22;6065;48.138;16.402;2022-12-17T04:08:27;1.10;99.90
12013;DHT22;6065;48.138;16.402;2022-12-17T04:11:11;1.10;99.90
12013;DHT22;6065;48.138;16.402;2022-12-17T04:13:55;1.10;99.90
12013;DHT22;6065;48.138;16.402;2022-12-17T04:16:39;1.10;99.90
12013;DHT22;6065;48.138;16.402;2022-12-17T04:19:23;1.10;99.90
12013;DHT22;6065;48.138;16.402;2022-12-17T04:22:08;1.10;99.90
12013;DHT22;6065;48.138;16.402;2022-12-17T04:24:53;1.10;99.90
12013;DHT22;6065;48.138;16.402;2022-12-17T04:27:37;1.10;99.90
12013;DHT22;6065;48.138;16.402;2022-12-17T04:30:21;1.10;99.90
12013;DHT22;6065;48.138;16.402;2022-12-17T04:33:06;1.10;99.90
12013;DHT22;6065;48.138;16.402;2022-12-17T04:35:50;1.10;99.90
12013;DHT22;6065;48.138;16.402;2022-12-17T04:38:33;1.10;99.90
12013;DHT22;6065;48.138;16.402;2022-12-17T04:41:19;1.10;99.90
12013;DHT22;6065;48.138;16.402;2022-12-17T04:44:03;1.10;99.90
12013;DHT22;6065;48.138;16.402;2022-12-17T04:46:47;1.10;99.90
12013;DHT22;6065;48.138;16.402;2022-12-17T04:49:31;1.10;99.90
12013;DHT22;6065;48.138;16.402;2022-12-17T04:52:16;1.10;99.90
12013;DHT22;6065;48.138;16.402;2022-12-17T04:55:09;1.20;99.90
12013;DHT22;6065;48.138;16.402;2022-12-17T04:58:00;1.10;99.90
12013;DHT22;6065;48.138;16.402;2022-12-17T05:00:44;1.10;99.90
12013;DHT22;6065;48.138;16.402;2022-12-17T05:03:29;1.10;99.90
12013;DHT22;6065;48.138;16.402;2022-12-17T05:06:12;1.10;99.90
12013;DHT22;6065;48.138;16.402;2022-12-17T05:08:57;1.10;99.90
12013;DHT22;6065;48.138;16.402;2022-12-17T05:11:41;1.10;99.90
12013;DHT22;6065;48.138;16.402;2022-12-17T05:14:27;1.00;99.90
12013;DHT22;6065;48.138;16.402;2022-12-17T05:17:11;1.10;99.90
12013;DHT22;6065;48.138;16.402;2022-12-17T05:19:55;1.00;99.90
12013;DHT22;6065;48.138;16.402;2022-12-17T05:22:39;1.00;99.90
12013;DHT22;6065;48.138;16.402;2022-12-17T05:25:24;1.00;99.90
12013;DHT22;6065;48.138;16.402;2022-12-17T05:28:08;1.00;99.90
12013;DHT22;6065;48.138;16.402;2022-12-17T05:30:54;1.00;99.90
12013;DHT22;6065;48.138;16.402;2022-12-17T05:33:39;1.00;99.90
12013;DHT22;6065;48.138;16.402;2022-12-17T05:36:23;1.00;99.90
12013;DHT22;6065;48.138;16.402;2022-12-17T05:39:19;1.00;99.90
12013;DHT22;6065;48.138;16.402;2022-12-17T05:42:03;1.00;99.90
12013;DHT22;6065;48.138;16.402;2022-12-17T05:44:48;1.00;99.90
12013;DHT22;6065;48.138;16.402;2022-12-17T05:47:33;1.00;99.90
12013;DHT22;6065;48.138;16.402;2022-12-17T05:50:17;1.00;99.90
12013;DHT22;6065;48.138;16.402;2022-12-17T05:53:01;1.00;99.90
12013;DHT22;6065;48.138;16.402;2022-12-17T05:55:54;1.00;99.90
12013;DHT22;6065;48.138;16.402;2022-12-17T05:58:38;1.00;99.90
12013;DHT22;6065;48.138;16.402;2022-12-17T06:01:23;1.00;99.90
12013;DHT22;6065;48.138;16.402;2022-12-17T06:04:09;1.00;99.90
12013;DHT22;6065;48.138;16.402;2022-12-17T06:06:53;1.10;99.90
12013;DHT22;6065;48.138;16.402;2022-12-17T06:09:38;1.00;99.90
12013;DHT22;6065;48.138;16.402;2022-12-17T06:12:22;1.00;99.90
12013;DHT22;6065;48.138;16.402;2022-12-17T06:15:07;1.00;99.90
12013;DHT22;6065;48.138;16.402;2022-12-17T06:17:51;1.00;99.90
12013;DHT22;6065;48.138;16.402;2022-12-17T06:20:37;1.00;99.90
12013;DHT22;6065;48.138;16.402;2022-12-17T06:23:21;1.00;99.90
12013;DHT22;6065;48.138;16.402;2022-12-17T06:26:06;1.00;99.90
12013;DHT22;6065;48.138;16.402;2022-12-17T06:28:50;0.90;99.90
12013;DHT22;6065;48.138;16.402;2022-12-17T06:31:34;1.00;99.90
12013;DHT22;6065;48.138;16.402;2022-12-17T06:34:18;1.00;99.90
12013;DHT22;6065;48.138;16.402;2022-12-17T06:37:04;0.90;99.90
12013;DHT22;6065;48.138;16.402;2022-12-17T06:39:48;0.90;99.90
12013;DHT22;6065;48.138;16.402;2022-12-17T06:42:32;0.90;99.90
12013;DHT22;6065;48.138;16.402;2022-12-17T06:45:19;0.90;99.90
12013;DHT22;6065;48.138;16.402;2022-12-17T06:48:03;0.90;99.90
12013;DHT22;6065;48.138;16.402;2022-12-17T06:50:48;0.90;99.90
12013;DHT22;6065;48.138;16.402;2022-12-17T06:53:34;0.90;99.90
12013;DHT22;6065;48.138;16.402;2022-12-17T06:56:18;1.00;99.90
12013;DHT22;6065;48.138;16.402;2022-12-17T06:59:02;1.00;99.90
12013;DHT22;6065;48.138;16.402;2022-12-17T07:01:46;1.00;99.90
12013;DHT22;6065;48.138;16.402;2022-12-17T07:04:31;0.90;99.90
12013;DHT22;6065;48.138;16.402;2022-12-17T07:07:15;0.90;99.90
12013;DHT22;6065;48.138;16.402;2022-12-17T07:10:01;0.90;99.90
12013;DHT22;6065;48.138;16.402;2022-12-17T07:12:45;0.90;99.90
12013;DHT22;6065;48.138;16.402;2022-12-17T07:15:29;1.00;99.90
12013;DHT22;6065;48.138;16.402;2022-12-17T07:18:14;0.90;99.90
12013;DHT22;6065;48.138;16.402;2022-12-17T07:20:59;0.90;99.90
12013;DHT22;6065;48.138;16.402;2022-12-17T07:23:43;0.90;99.90
12013;DHT22;6065;48.138;16.402;2022-12-17T07:26:29;1.00;99.90
12013;DHT22;6065;48.138;16.402;2022-12-17T07:29:13;1.00;99.90
12013;DHT22;6065;48.138;16.402;2022-12-17T07:31:57;0.90;99.90
12013;DHT22;6065;48.138;16.402;2022-12-17T07:34:42;1.00;99.90
12013;DHT22;6065;48.138;16.402;2022-12-17T07:37:26;0.90;99.90
12013;DHT22;6065;48.138;16.402;2022-12-17T07:40:10;1.00;99.90
12013;DHT22;6065;48.138;16.402;2022-12-17T07:42:55;1.00;99.90
12013;DHT22;6065;48.138;16.402;2022-12-17T07:45:40;1.00;99.90
12013;DHT22;6065;48.138;16.402;2022-12-17T07:48:24;1.00;99.90
12013;DHT22;6065;48.138;16.402;2022-12-17T07:51:08;1.00;99.90
12013;DHT22;6065;48.138;16.402;2022-12-17T07:53:53;1.00;99.90
12013;DHT22;6065;48.138;16.402;2022-12-17T07:56:37;1.00;99.90
12013;DHT22;6065;48.138;16.402;2022-12-17T07:59:22;1.00;99.90
12013;DHT22;6065;48.138;16.402;2022-12-17T08:02:07;1.00;99.90
12013;DHT22;6065;48.138;16.402;2022-12-17T08:04:52;1.10;99.90
12013;DHT22;6065;48.138;16.402;2022-12-17T08:07:36;1.10;99.90
12013;DHT22;6065;48.138;16.402;2022-12-17T08:10:20;1.20;99.90
12013;DHT22;6065;48.138;16.402;2022-12-17T08:13:04;1.10;99.90
12013;DHT22;6065;48.138;16.402;2022-12-17T08:15:50;1.20;99.90
12013;DHT22;6065;48.138;16.402;2022-12-17T08:18:35;1.20;99.90
12013;DHT22;6065;48.138;16.402;2022-12-17T08:21:19;1.40;99.90
12013;DHT22;6065;48.138;16.402;2022-12-17T08:24:03;1.20;99.90
12013;DHT22;6065;48.138;16.402;2022-12-17T08:26:47;1.30;99.90
12013;DHT22;6065;48.138;16.402;2022-12-17T08:29:32;1.20;99.90
12013;DHT22;6065;48.138;16.402;2022-12-17T08:32:17;1.20;99.90
12013;DHT22;6065;48.138;16.402;2022-12-17T08:35:01;1.30;99.90
12013;DHT22;6065;48.138;16.402;2022-12-17T08:37:48;1.30;99.90
12013;DHT22;6065;48.138;16.402;2022-12-17T08:40:32;1.30;99.90
12013;DHT22;6065;48.138;16.402;2022-12-17T08:43:16;1.30;99.90
12013;DHT22;6065;48.138;16.402;2022-12-17T08:46:00;1.30;99.90
12013;DHT22;6065;48.138;16.402;2022-12-17T08:48:46;1.30;99.90
12013;DHT22;6065;48.138;16.402;2022-12-17T08:51:31;1.30;99.90
12013;DHT22;6065;48.138;16.402;2022-12-17T08:54:15;1.30;99.90
12013;DHT22;6065;48.138;16.402;2022-12-17T08:57:00;1.40;99.90
12013;DHT22;6065;48.138;16.402;2022-12-17T08:59:44;1.40;99.90
12013;DHT22;6065;48.138;16.402;2022-12-17T09:02:28;1.40;99.90
12013;DHT22;6065;48.138;16.402;2022-12-17T09:05:14;1.40;99.90
12013;DHT22;6065;48.138;16.402;2022-12-17T09:07:59;1.40;99.90
12013;DHT22;6065;48.138;16.402;2022-12-17T09:10:43;1.40;99.90
12013;DHT22;6065;48.138;16.402;2022-12-17T09:13:27;1.50;99.90
12013;DHT22;6065;48.138;16.402;2022-12-17T09:16:11;1.50;99.90
12013;DHT22;6065;48.138;16.402;2022-12-17T09:18:55;1.50;99.90
12013;DHT22;6065;48.138;16.402;2022-12-17T09:21:41;1.50;99.90
12013;DHT22;6065;48.138;16.402;2022-12-17T09:24:25;1.50;99.90
12013;DHT22;6065;48.138;16.402;2022-12-17T09:27:08;1.50;99.90
12013;DHT22;6065;48.138;16.402;2022-12-17T09:29:53;1.50;99.90
12013;DHT22;6065;48.138;16.402;2022-12-17T09:32:37;1.50;99.90
12013;DHT22;6065;48.138;16.402;2022-12-17T09:35:21;1.50;99.90
12013;DHT22;6065;48.138;16.402;2022-12-17T09:38:07;1.50;99.90
12013;DHT22;6065;48.138;16.402;2022-12-17T09:40:53;1.50;99.90
12013;DHT22;6065;48.138;16.402;2022-12-17T09:43:39;1.50;99.90
12013;DHT22;6065;48.138;16.402;2022-12-17T09:46:25;1.70;99.90
12013;DHT22;6065;48.138;16.402;2022-12-17T09:49:12;1.50;99.90
12013;DHT22;6065;48.138;16.402;2022-12-17T09:51:58;1.50;99.90
12013;DHT22;6065;48.138;16.402;2022-12-17T09:54:45;1.50;99.90
12013;DHT22;6065;48.138;16.402;2022-12-17T09:57:31;1.50;99.90
12013;DHT22;6065;48.138;16.402;2022-12-17T10:00:16;1.50;99.90
12013;DHT22;6065;48.138;16.402;2022-12-17T10:03:01;1.50;99.90
12013;DHT22;6065;48.138;16.402;2022-12-17T10:05:45;1.60;99.90
12013;DHT22;6065;48.138;16.402;2022-12-17T10:08:31;1.50;99.90
12013;DHT22;6065;48.138;16.402;2022-12-17T10:11:19;1.50;99.90
12013;DHT22;6065;48.138;16.402;2022-12-17T10:14:16;1.50;99.90
12013;DHT22;6065;48.138;16.402;2022-12-17T10:17:00;1.50;99.90
12013;DHT22;6065;48.138;16.402;2022-12-17T10:19:45;1.50;99.90
12013;DHT22;6065;48.138;16.402;2022-12-17T10:22:31;1.60;99.90
12013;DHT22;6065;48.138;16.402;2022-12-17T10:25:30;1.50;99.90
12013;DHT22;6065;48.138;16.402;2022-12-17T10:28:16;1.60;99.90
12013;DHT22;6065;48.138;16.402;2022-12-17T10:31:01;1.60;99.90
12013;DHT22;6065;48.138;16.402;2022-12-17T10:33:53;1.50;99.90
12013;DHT22;6065;48.138;16.402;2022-12-17T10:36:46;1.60;99.90
12013;DHT22;6065;48.138;16.402;2022-12-17T10:39:30;1.60;99.90
12013;DHT22;6065;48.138;16.402;2022-12-17T10:42:21;1.60;99.90
12013;DHT22;6065;48.138;16.402;2022-12-17T10:45:18;1.60;99.90
12013;DHT22;6065;48.138;16.402;2022-12-17T10:48:03;1.50;99.90
12013;DHT22;6065;48.138;16.402;2022-12-17T10:50:47;1.50;99.90
12013;DHT22;6065;48.138;16.402;2022-12-17T10:53:32;1.50;99.90
12013;DHT22;6065;48.138;16.402;2022-12-17T10:56:18;1.50;99.90
12013;DHT22;6065;48.138;16.402;2022-12-17T10:59:09;1.50;99.90
12013;DHT22;6065;48.138;16.402;2022-12-17T11:01:56;1.50;99.90
12013;DHT22;6065;48.138;16.402;2022-12-17T11:04:57;1.50;99.90
12013;DHT22;6065;48.138;16.402;2022-12-17T11:07:41;1.70;99.90
12013;DHT22;6065;48.138;16.402;2022-12-17T11:10:27;1.50;99.90
12013;DHT22;6065;48.138;16.402;2022-12-17T11:13:09;1.60;99.90
12013;DHT22;6065;48.138;16.402;2022-12-17T11:15:55;1.60;99.90
12013;DHT22;6065;48.138;16.402;2022-12-17T11:18:43;1.60;99.90
12013;DHT22;6065;48.138;16.402;2022-12-17T11:21:43;1.60;99.90
12013;DHT22;6065;48.138;16.402;2022-12-17T11:24:31;1.60;99.90
12013;DHT22;6065;48.138;16.402;2022-12-17T11:27:21;1.60;99.90
12013;DHT22;6065;48.138;16.402;2022-12-17T11:30:10;1.60;99.90
12013;DHT22;6065;48.138;16.402;2022-12-17T11:32:57;1.70;99.90
12013;DHT22;6065;48.138;16.402;2022-12-17T11:35:47;1.70;99.90
12013;DHT22;6065;48.138;16.402;2022-12-17T11:38:35;1.70;99.90
12013;DHT22;6065;48.138;16.402;2022-12-17T11:41:22;1.70;99.90
12013;DHT22;6065;48.138;16.402;2022-12-17T11:44:12;1.70;99.90
12013;DHT22;6065;48.138;16.402;2022-12-17T11:47:00;1.70;99.90
12013;DHT22;6065;48.138;16.402;2022-12-17T11:49:49;1.70;99.90
12013;DHT22;6065;48.138;16.402;2022-12-17T11:52:38;1.70;99.90
12013;DHT22;6065;48.138;16.402;2022-12-17T11:55:25;1.70;99.90
12013;DHT22;6065;48.138;16.402;2022-12-17T11:58:14;1.70;99.90
12013;DHT22;6065;48.138;16.402;2022-12-17T12:01:04;1.70;99.90
12013;DHT22;6065;48.138;16.402;2022-12-17T12:03:49;1.70;99.90
12013;DHT22;6065;48.138;16.402;2022-12-17T12:06:37;1.70;99.90
12013;DHT22;6065;48.138;16.402;2022-12-17T12:09:25;1.70;99.90
12013;DHT22;6065;48.138;16.402;2022-12-17T12:12:13;1.70;99.90
12013;DHT22;6065;48.138;16.402;2022-12-17T12:15:00;1.70;99.90
12013;DHT22;6065;48.138;16.402;2022-12-17T12:17:47;1.70;99.90
12013;DHT22;6065;48.138;16.402;2022-12-17T12:20:36;1.60;99.90
12013;DHT22;6065;48.138;16.402;2022-12-17T12:23:25;1.70;99.90
12013;DHT22;6065;48.138;16.402;2022-12-17T12:26:14;1.60;99.90
12013;DHT22;6065;48.138;16.402;2022-12-17T12:29:00;1.70;99.90
12013;DHT22;6065;48.138;16.402;2022-12-17T12:31:48;1.70;99.90
12013;DHT22;6065;48.138;16.402;2022-12-17T12:34:35;1.60;99.90
12013;DHT22;6065;48.138;16.402;2022-12-17T12:37:20;1.60;99.90
12013;DHT22;6065;48.138;16.402;2022-12-17T12:40:06;1.60;99.90
12013;DHT22;6065;48.138;16.402;2022-12-17T12:42:59;1.70;99.90
12013;DHT22;6065;48.138;16.402;2022-12-17T12:45:46;1.60;99.90
12013;DHT22;6065;48.138;16.402;2022-12-17T12:48:37;1.60;99.90
12013;DHT22;6065;48.138;16.402;2022-12-17T12:51:24;1.70;99.90
12013;DHT22;6065;48.138;16.402;2022-12-17T12:54:22;1.80;99.90
12013;DHT22;6065;48.138;16.402;2022-12-17T13:00:19;1.80;99.90
12013;DHT22;6065;48.138;16.402;2022-12-17T13:03:06;1.80;99.90
12013;DHT22;6065;48.138;16.402;2022-12-17T13:05:50;1.80;99.90
12013;DHT22;6065;48.138;16.402;2022-12-17T13:08:22;1.80;99.90
12013;DHT22;6065;48.138;16.402;2022-12-17T13:10:50;1.80;99.90
12013;DHT22;6065;48.138;16.402;2022-12-17T13:13:23;1.70;99.90
12013;DHT22;6065;48.138;16.402;2022-12-17T13:15:55;1.80;99.90
12013;DHT22;6065;48.138;16.402;2022-12-17T13:18:27;1.70;99.90
12013;DHT22;6065;48.138;16.402;2022-12-17T13:20:58;1.70;99.90
12013;DHT22;6065;48.138;16.402;2022-12-17T13:23:30;1.70;99.90
12013;DHT22;6065;48.138;16.402;2022-12-17T13:26:15;1.70;99.90
12013;DHT22;6065;48.138;16.402;2022-12-17T13:28:43;1.70;99.90
12013;DHT22;6065;48.138;16.402;2022-12-17T13:31:16;1.70;99.90
12013;DHT22;6065;48.138;16.402;2022-12-17T13:33:46;1.70;99.90
12013;DHT22;6065;48.138;16.402;2022-12-17T13:36:16;1.70;99.90
12013;DHT22;6065;48.138;16.402;2022-12-17T13:38:48;1.70;99.90
12013;DHT22;6065;48.138;16.402;2022-12-17T13:41:19;1.70;99.90
12013;DHT22;6065;48.138;16.402;2022-12-17T13:43:47;1.70;99.90
12013;DHT22;6065;48.138;16.402;2022-12-17T13:46:19;1.70;99.90
12013;DHT22;6065;48.138;16.402;2022-12-17T13:48:54;1.70;99.90
12013;DHT22;6065;48.138;16.402;2022-12-17T13:51:22;1.70;99.90
12013;DHT22;6065;48.138;16.402;2022-12-17T13:53:50;1.70;99.90
12013;DHT22;6065;48.138;16.402;2022-12-17T13:56:21;1.70;99.90
12013;DHT22;6065;48.138;16.402;2022-12-17T13:58:50;1.70;99.90
12013;DHT22;6065;48.138;16.402;2022-12-17T14:01:20;1.70;99.90
12013;DHT22;6065;48.138;16.402;2022-12-17T14:03:51;1.70;99.90
12013;DHT22;6065;48.138;16.402;2022-12-17T14:06:22;1.70;99.90
12013;DHT22;6065;48.138;16.402;2022-12-17T14:08:50;1.70;99.90
12013;DHT22;6065;48.138;16.402;2022-12-17T14:11:18;1.70;99.90
12013;DHT22;6065;48.138;16.402;2022-12-17T14:14:03;1.60;99.90
12013;DHT22;6065;48.138;16.402;2022-12-17T14:16:35;1.70;99.90
12013;DHT22;6065;48.138;16.402;2022-12-17T14:19:03;1.60;99.90
12013;DHT22;6065;48.138;16.402;2022-12-17T14:21:32;1.60;99.90
12013;DHT22;6065;48.138;16.402;2022-12-17T14:24:01;1.60;99.90
12013;DHT22;6065;48.138;16.402;2022-12-17T14:26:30;1.60;99.90
12013;DHT22;6065;48.138;16.402;2022-12-17T14:28:58;1.60;99.90
12013;DHT22;6065;48.138;16.402;2022-12-17T14:31:26;1.60;99.90
12013;DHT22;6065;48.138;16.402;2022-12-17T14:34:03;1.60;99.90
12013;DHT22;6065;48.138;16.402;2022-12-17T14:36:41;1.60;99.90
12013;DHT22;6065;48.138;16.402;2022-12-17T14:39:15;1.60;99.90
12013;DHT22;6065;48.138;16.402;2022-12-17T14:41:43;1.60;99.90
12013;DHT22;6065;48.138;16.402;2022-12-17T14:44:28;1.60;99.90
12013;DHT22;6065;48.138;16.402;2022-12-17T14:47:05;1.60;99.90
12013;DHT22;6065;48.138;16.402;2022-12-17T14:49:36;1.60;99.90
12013;DHT22;6065;48.138;16.402;2022-12-17T14:52:10;1.60;99.90
12013;DHT22;6065;48.138;16.402;2022-12-17T14:54:43;1.60;99.90
12013;DHT22;6065;48.138;16.402;2022-12-17T14:57:16;1.60;99.90
12013;DHT22;6065;48.138;16.402;2022-12-17T14:59:45;1.60;99.90
12013;DHT22;6065;48.138;16.402;2022-12-17T15:02:16;1.60;99.90
12013;DHT22;6065;48.138;16.402;2022-12-17T15:04:50;1.50;99.90
12013;DHT22;6065;48.138;16.402;2022-12-17T15:07:20;1.50;99.90
12013;DHT22;6065;48.138;16.402;2022-12-17T15:09:48;1.50;99.90
12013;DHT22;6065;48.138;16.402;2022-12-17T15:12:17;1.50;99.90
12013;DHT22;6065;48.138;16.402;2022-12-17T15:14:45;1.50;99.90
12013;DHT22;6065;48.138;16.402;2022-12-17T15:17:13;1.50;99.90
12013;DHT22;6065;48.138;16.402;2022-12-17T15:19:41;1.50;99.90
12013;DHT22;6065;48.138;16.402;2022-12-17T15:22:11;1.50;99.90
12013;DHT22;6065;48.138;16.402;2022-12-17T15:24:40;1.50;99.90
12013;DHT22;6065;48.138;16.402;2022-12-17T15:27:08;1.50;99.90
12013;DHT22;6065;48.138;16.402;2022-12-17T15:29:35;1.50;99.90
12013;DHT22;6065;48.138;16.402;2022-12-17T15:32:02;1.50;99.90
12013;DHT22;6065;48.138;16.402;2022-12-17T15:34:30;1.50;99.90
12013;DHT22;6065;48.138;16.402;2022-12-17T15:36:59;1.50;99.90
12013;DHT22;6065;48.138;16.402;2022-12-17T15:39:28;1.40;99.90
12013;DHT22;6065;48.138;16.402;2022-12-17T15:41:56;1.50;99.90
12013;DHT22;6065;48.138;16.402;2022-12-17T15:44:40;1.40;99.90
12013;DHT22;6065;48.138;16.402;2022-12-17T15:47:07;1.40;99.90
12013;DHT22;6065;48.138;16.402;2022-12-17T15:49:36;1.40;99.90
12013;DHT22;6065;48.138;16.402;2022-12-17T15:52:03;1.40;99.90
12013;DHT22;6065;48.138;16.402;2022-12-17T15:54:32;1.40;99.90
12013;DHT22;6065;48.138;16.402;2022-12-17T15:56:59;1.40;99.90
12013;DHT22;6065;48.138;16.402;2022-12-17T15:59:28;1.40;99.90
12013;DHT22;6065;48.138;16.402;2022-12-17T16:01:58;1.40;99.90
12013;DHT22;6065;48.138;16.402;2022-12-17T16:04:26;1.40;99.90
12013;DHT22;6065;48.138;16.402;2022-12-17T16:06:54;1.40;99.90
12013;DHT22;6065;48.138;16.402;2022-12-17T16:09:22;1.40;99.90
12013;DHT22;6065;48.138;16.402;2022-12-17T16:11:53;1.40;99.90
12013;DHT22;6065;48.138;16.402;2022-12-17T16:14:23;1.30;99.90
12013;DHT22;6065;48.138;16.402;2022-12-17T16:16:51;1.30;99.90
12013;DHT22;6065;48.138;16.402;2022-12-17T16:19:18;1.30;99.90
12013;DHT22;6065;48.138;16.402;2022-12-17T16:21:46;1.30;99.90
12013;DHT22;6065;48.138;16.402;2022-12-17T16:24:13;1.30;99.90
12013;DHT22;6065;48.138;16.402;2022-12-17T16:26:40;1.30;99.90
12013;DHT22;6065;48.138;16.402;2022-12-17T16:29:12;1.20;99.90
12013;DHT22;6065;48.138;16.402;2022-12-17T16:31:42;1.20;99.90
12013;DHT22;6065;48.138;16.402;2022-12-17T16:34:11;1.20;99.90
12013;DHT22;6065;48.138;16.402;2022-12-17T16:36:38;1.20;99.90
12013;DHT22;6065;48.138;16.402;2022-12-17T16:39:05;1.20;99.90
12013;DHT22;6065;48.138;16.402;2022-12-17T16:41:32;1.20;99.90
12013;DHT22;6065;48.138;16.402;2022-12-17T16:43:59;1.10;99.90
12013;DHT22;6065;48.138;16.402;2022-12-17T16:46:28;1.10;99.90
12013;DHT22;6065;48.138;16.402;2022-12-17T16:48:55;1.10;99.90
12013;DHT22;6065;48.138;16.402;2022-12-17T16:51:23;1.10;99.90
12013;DHT22;6065;48.138;16.402;2022-12-17T16:53:50;1.10;99.90
12013;DHT22;6065;48.138;16.402;2022-12-17T16:56:17;1.10;99.90
12013;DHT22;6065;48.138;16.402;2022-12-17T16:58:44;1.00;99.90
12013;DHT22;6065;48.138;16.402;2022-12-17T17:01:11;1.00;99.90
12013;DHT22;6065;48.138;16.402;2022-12-17T17:03:40;1.00;99.90
12013;DHT22;6065;48.138;16.402;2022-12-17T17:06:07;1.00;99.90
12013;DHT22;6065;48.138;16.402;2022-12-17T17:08:34;1.00;99.90
12013;DHT22;6065;48.138;16.402;2022-12-17T17:11:08;1.00;99.90
12013;DHT22;6065;48.138;16.402;2022-12-17T17:13:35;0.90;99.90
12013;DHT22;6065;48.138;16.402;2022-12-17T17:16:02;0.90;99.90
12013;DHT22;6065;48.138;16.402;2022-12-17T17:18:28;0.90;99.90
12013;DHT22;6065;48.138;16.402;2022-12-17T17:23:38;0.90;99.90
12013;DHT22;6065;48.138;16.402;2022-12-17T17:26:05;0.90;99.90